Time;durP1;ratioP1;P1;durP2;ratioP2;P2;SDS_P1;SDS_P2;PMS_P1;PMS_P2;Temp;Humidity;BMP_temperature;BMP_pressure;BME280_temperature;BME280_humidity;BME280_pressure;Samples;Min_cycle;Max_cycle;Signal;HPM_P1;HPM_P2
2022/09/30 00:02:13;;;;;;;5.47;4.87;;;;;;;6.91;86.12;99995.56;5053349;28;20216;-82
2022/09/30 00:04:40;;;;;;;5.63;5.00;;;;;;;6.85;86.12;99987.97;5050219;28;20221;-82
2022/09/30 00:07:06;;;;;;;5.33;4.93;;;;;;;6.82;86.30;99993.44;5049618;28;20210;-81
2022/09/30 00:09:33;;;;;;;5.87;4.90;;;;;;;6.78;86.22;99988.44;5045778;28;20197;-83
2022/09/30 00:12:00;;;;;;;5.30;4.80;;;;;;;6.75;86.76;99997.41;5045870;28;20209;-82
2022/09/30 00:14:26;;;;;;;5.50;5.00;;;;;;;6.71;86.92;99997.66;5050924;28;20220;-81
2022/09/30 00:16:54;;;;;;;5.40;4.90;;;;;;;6.68;86.78;99998.69;5048832;28;20205;-82
2022/09/30 00:19:20;;;;;;;6.83;4.70;;;;;;;6.67;87.08;100002.28;5044235;28;20606;-82
2022/09/30 00:21:47;;;;;;;5.97;5.43;;;;;;;6.65;87.17;100001.50;5046585;28;20210;-81
2022/09/30 00:24:14;;;;;;;5.70;5.20;;;;;;;6.61;87.33;100005.31;5056358;28;20213;-81
2022/09/30 00:26:40;;;;;;;5.60;5.10;;;;;;;6.56;86.80;100005.56;5046260;28;20213;-82
2022/09/30 00:29:07;;;;;;;6.53;5.87;;;;;;;6.51;86.85;100010.25;5046189;28;20210;-82
2022/09/30 00:31:35;;;;;;;6.10;5.50;;;;;;;6.50;87.15;100005.03;5052005;28;20197;-82
2022/09/30 00:34:10;;;;;;;6.40;5.63;;;;;;;6.47;87.74;100006.06;5053267;28;20201;-84
2022/09/30 00:36:42;;;;;;;5.97;5.37;;;;;;;6.48;88.07;100009.56;5053547;28;20230;-81
2022/09/30 00:39:10;;;;;;;7.27;6.40;;;;;;;6.48;88.06;100004.28;5057547;28;20213;-81
2022/09/30 00:41:37;;;;;;;6.27;5.77;;;;;;;6.48;88.43;100005.13;5057388;28;20206;-82
2022/09/30 00:44:37;;;;;;;6.73;6.13;;;;;;;6.50;88.26;99999.75;5045991;28;20598;-83
2022/09/30 00:47:17;;;;;;;6.47;5.80;;;;;;;6.50;88.75;100010.34;5055969;28;20575;-83
2022/09/30 00:49:45;;;;;;;6.10;5.60;;;;;;;6.49;88.51;100009.47;5049634;28;20206;-84
2022/09/30 00:52:12;;;;;;;6.03;5.43;;;;;;;6.49;88.98;100005.97;5057162;28;20794;-84
2022/09/30 00:54:39;;;;;;;6.70;5.87;;;;;;;6.49;88.95;100013.91;5046218;28;20225;-81
2022/09/30 00:57:08;;;;;;;6.17;5.57;;;;;;;6.49;89.00;100013.91;5057483;28;20220;-82
2022/09/30 00:59:40;;;;;;;6.17;5.57;;;;;;;6.49;89.39;100016.56;5043626;28;20232;-82
2022/09/30 01:02:09;;;;;;;6.90;5.70;;;;;;;6.48;89.00;100013.06;5057570;28;20626;-81
2022/09/30 01:04:37;;;;;;;5.90;5.33;;;;;;;6.47;88.77;100016.66;5054190;28;20221;-82
2022/09/30 01:07:07;;;;;;;6.20;5.60;;;;;;;6.48;89.75;100022.78;5055631;28;20209;-81
2022/09/30 01:09:35;;;;;;;5.87;5.20;;;;;;;6.48;89.23;100025.44;5041694;28;20201;-82
2022/09/30 01:12:04;;;;;;;8.30;5.53;;;;;;;6.47;89.19;100026.38;5047781;28;20243;-82
2022/09/30 01:14:31;;;;;;;7.20;5.40;;;;;;;6.47;89.64;100021.09;5057188;28;20218;-81
2022/09/30 01:17:05;;;;;;;7.47;5.53;;;;;;;6.46;89.36;100022.03;5044108;28;20209;-83
2022/09/30 01:20:06;;;;;;;5.80;5.23;;;;;;;6.45;89.29;100025.63;5051945;28;20243;-83
2022/09/30 01:22:42;;;;;;;6.47;5.87;;;;;;;6.44;89.15;100021.28;5043409;28;20202;-82
2022/09/30 01:25:42;;;;;;;6.40;5.77;;;;;;;6.43;89.46;100024.88;5050400;28;20233;-82
2022/09/30 01:28:36;;;;;;;6.10;5.50;;;;;;;6.41;89.56;100029.38;5051460;28;20585;-82
2022/09/30 01:31:17;;;;;;;6.20;5.60;;;;;;;6.40;89.01;100022.38;5049035;28;20212;-81
2022/09/30 01:33:50;;;;;;;6.53;5.00;;;;;;;6.38;89.07;100024.25;5041067;28;20216;-81
2022/09/30 01:36:38;;;;;;;5.30;4.80;;;;;;;6.36;89.40;100028.78;5050792;28;20242;-81
2022/09/30 01:39:17;;;;;;;5.13;4.73;;;;;;;6.35;89.15;100030.56;5043921;28;20229;-81
2022/09/30 01:41:53;;;;;;;5.43;4.93;;;;;;;6.34;89.18;100026.22;5056544;28;20243;-81
2022/09/30 01:44:30;;;;;;;7.77;5.27;;;;;;;6.33;88.84;100034.22;5053128;28;20194;-82
2022/09/30 01:47:05;;;;;;;5.57;4.87;;;;;;;6.30;89.01;100032.59;5057328;28;20205;-81
2022/09/30 01:49:38;;;;;;;6.20;5.33;;;;;;;6.28;88.60;100037.13;5059884;28;20552;-82
2022/09/30 01:52:11;;;;;;;5.97;5.37;;;;;;;6.25;88.39;100035.53;5059694;28;20220;-81
2022/09/30 01:54:43;;;;;;;7.00;5.70;;;;;;;6.22;88.75;100035.69;5057994;28;20706;-81
2022/09/30 01:57:16;;;;;;;6.93;5.50;;;;;;;6.20;88.66;100039.34;5054730;28;20209;-81
2022/09/30 01:59:47;;;;;;;6.97;6.13;;;;;;;6.18;88.89;100039.44;5059614;28;20240;-81
2022/09/30 02:02:18;;;;;;;6.40;5.73;;;;;;;6.15;88.98;100041.38;5062650;28;20201;-82
2022/09/30 02:04:50;;;;;;;6.37;5.77;;;;;;;6.14;89.19;100035.25;5053537;28;20229;-80
2022/09/30 02:07:24;;;;;;;6.83;6.10;;;;;;;6.14;88.87;100039.69;5052202;28;20214;-81
2022/09/30 02:09:56;;;;;;;8.73;7.17;;;;;;;6.10;89.21;100041.63;5055947;28;20671;-81
2022/09/30 02:12:26;;;;;;;8.27;7.30;;;;;;;6.10;89.55;100044.28;5051948;28;20675;-82
2022/09/30 02:14:58;;;;;;;9.40;7.30;;;;;;;6.08;89.54;100046.19;5059504;28;20221;-82
2022/09/30 02:17:31;;;;;;;10.87;7.60;;;;;;;6.08;89.44;100051.47;5055123;28;20205;-81
2022/09/30 02:20:00;;;;;;;8.10;6.80;;;;;;;6.06;89.51;100053.34;5055398;28;20220;-82
2022/09/30 02:22:31;;;;;;;9.57;7.60;;;;;;;6.05;89.39;100051.63;5047467;28;21131;-81
2022/09/30 02:25:01;;;;;;;7.37;6.60;;;;;;;6.04;89.93;100057.84;5057074;28;20588;-81
2022/09/30 02:27:40;;;;;;;6.67;5.97;;;;;;;6.03;90.01;100053.50;5058902;28;20253;-83
2022/09/30 02:30:09;;;;;;;6.53;5.93;;;;;;;6.03;89.92;100047.34;5060970;28;20201;-84
2022/09/30 02:32:42;;;;;;;7.60;6.00;;;;;;;6.01;89.96;100044.78;5048866;28;20281;-83
2022/09/30 02:35:14;;;;;;;6.30;5.77;;;;;;;6.01;90.26;100046.56;5054244;28;20226;-83
2022/09/30 02:37:44;;;;;;;6.20;5.60;;;;;;;6.02;90.16;100056.22;5058729;28;20657;-81
2022/09/30 02:40:16;;;;;;;6.83;6.23;;;;;;;6.00;90.17;100053.66;5050695;28;20214;-83
2022/09/30 02:42:45;;;;;;;6.63;5.73;;;;;;;6.00;90.35;100045.72;5058154;28;20201;-80
2022/09/30 02:45:15;;;;;;;8.30;6.20;;;;;;;6.00;90.94;100047.50;5048718;28;20229;-81
2022/09/30 02:47:56;;;;;;;7.17;6.47;;;;;;;5.99;90.71;100051.94;5062345;28;20201;-82
2022/09/30 02:50:30;;;;;;;7.13;5.97;;;;;;;5.98;90.96;100054.66;5052556;28;20202;-80
2022/09/30 02:53:08;;;;;;;6.40;5.80;;;;;;;5.96;90.86;100059.19;5055888;28;20209;-81
2022/09/30 02:55:48;;;;;;;6.70;6.00;;;;;;;5.94;90.90;100059.25;5046841;28;20253;-79
2022/09/30 02:58:17;;;;;;;6.83;6.17;;;;;;;5.93;91.01;100065.47;5042886;28;20210;-81
2022/09/30 03:00:43;;;;;;;6.30;5.70;;;;;;;5.92;91.04;100063.78;5062273;28;20762;-81
2022/09/30 03:03:18;;;;;;;7.43;6.73;;;;;;;5.89;91.01;100059.53;5061359;28;20576;-81
2022/09/30 03:05:44;;;;;;;7.70;6.27;;;;;;;5.89;91.11;100062.19;5050949;28;20235;-82
2022/09/30 03:08:11;;;;;;;7.80;6.90;;;;;;;5.86;91.18;100061.44;5058158;28;20197;-82
2022/09/30 03:10:39;;;;;;;8.90;7.57;;;;;;;5.86;90.59;100061.44;5050387;28;20201;-81
2022/09/30 03:13:25;;;;;;;9.30;7.50;;;;;;;5.84;90.64;100065.97;5039917;28;20217;-81
2022/09/30 03:16:06;;;;;;;9.13;6.97;;;;;;;5.82;90.56;100076.59;5048007;28;20577;-82
2022/09/30 03:18:58;;;;;;;9.27;6.80;;;;;;;5.78;90.65;100075.06;5050876;28;20204;-80
2022/09/30 03:21:37;;;;;;;10.80;6.73;;;;;;;5.75;90.74;100077.00;5051205;28;20804;-84
2022/09/30 03:24:24;;;;;;;7.07;6.17;;;;;;;5.74;90.51;100084.06;5046733;28;20201;-82
2022/09/30 03:26:58;;;;;;;8.03;6.20;;;;;;;5.72;90.81;100082.47;5048278;28;20608;-82
2022/09/30 03:29:34;;;;;;;8.10;6.87;;;;;;;5.70;90.69;100093.13;5051483;28;20194;-81
2022/09/30 03:32:11;;;;;;;8.73;6.87;;;;;;;5.68;90.41;100099.41;5044813;28;20216;-81
2022/09/30 03:34:59;;;;;;;7.60;6.80;;;;;;;5.65;90.55;100091.63;5050984;28;20217;-81
2022/09/30 03:37:32;;;;;;;7.60;6.80;;;;;;;5.63;90.62;100091.72;5057533;28;20201;-81
2022/09/30 03:40:04;;;;;;;9.77;7.50;;;;;;;5.61;90.16;100092.72;5050281;28;20251;-82
2022/09/30 03:42:38;;;;;;;8.17;6.80;;;;;;;5.56;90.33;100091.16;5048526;28;20247;-83
2022/09/30 03:45:11;;;;;;;7.13;6.53;;;;;;;5.52;90.02;100091.41;5045411;28;20306;-83
2022/09/30 03:47:43;;;;;;;10.70;6.33;;;;;;;5.47;90.35;100096.94;5042283;28;20557;-84
2022/09/30 03:50:15;;;;;;;7.23;6.30;;;;;;;5.43;90.02;100092.72;5041039;28;20579;-84
2022/09/30 03:52:41;;;;;;;6.87;6.13;;;;;;;5.40;90.17;100098.16;5038409;28;20293;-83
2022/09/30 03:55:10;;;;;;;6.60;5.90;;;;;;;5.39;90.04;100095.59;5044096;28;20932;-82
2022/09/30 03:57:37;;;;;;;6.87;6.07;;;;;;;5.38;90.16;100102.66;5048920;28;20678;-84
2022/09/30 04:00:05;;;;;;;9.10;6.60;;;;;;;5.36;90.10;100104.56;5053294;28;20237;-81
2022/09/30 04:02:31;;;;;;;7.53;6.83;;;;;;;5.35;89.88;100107.28;5044734;28;20252;-83
2022/09/30 04:04:58;;;;;;;7.50;6.80;;;;;;;5.33;90.18;100110.00;5039104;28;20233;-81
2022/09/30 04:07:26;;;;;;;8.03;6.70;;;;;;;5.31;90.24;100111.84;5041152;28;20264;-81
2022/09/30 04:09:53;;;;;;;8.20;6.93;;;;;;;5.31;90.24;100111.00;5041540;28;20752;-81
2022/09/30 04:12:20;;;;;;;8.13;7.33;;;;;;;5.31;90.37;100116.28;5041217;28;20483;-81
2022/09/30 04:14:46;;;;;;;7.77;7.07;;;;;;;5.31;90.65;100126.84;5051396;28;20224;-81
2022/09/30 04:17:13;;;;;;;8.20;7.40;;;;;;;5.29;90.68;100116.34;5035198;28;20206;-81
2022/09/30 04:19:39;;;;;;;8.83;7.73;;;;;;;5.28;90.81;100119.06;5046607;28;20198;-82
2022/09/30 04:22:07;;;;;;;8.77;7.37;;;;;;;5.27;90.60;100122.63;5048326;28;20685;-82
2022/09/30 04:24:35;;;;;;;7.03;6.17;;;;;;;5.26;90.87;100129.69;5044444;28;20221;-83
2022/09/30 04:27:02;;;;;;;7.23;6.13;;;;;;;5.26;90.57;100128.84;5049872;28;20209;-81
2022/09/30 04:29:28;;;;;;;7.50;6.80;;;;;;;5.24;90.59;100134.19;5056692;28;20209;-81
2022/09/30 04:31:55;;;;;;;7.63;6.30;;;;;;;5.20;90.64;100128.19;5039718;28;20208;-82
2022/09/30 04:34:21;;;;;;;7.17;6.47;;;;;;;5.19;90.70;100134.44;5041465;28;20213;-83
2022/09/30 04:36:48;;;;;;;9.40;7.50;;;;;;;5.18;90.95;100138.00;5049426;28;20430;-81
2022/09/30 04:39:14;;;;;;;8.73;7.83;;;;;;;5.17;90.73;100141.59;5042421;28;20212;-82
2022/09/30 04:41:42;;;;;;;7.90;6.77;;;;;;;5.15;90.94;100148.72;5042654;28;20229;-81
2022/09/30 04:44:09;;;;;;;9.23;8.07;;;;;;;5.15;90.84;100142.59;5039392;28;21290;-82
2022/09/30 04:46:36;;;;;;;8.43;7.00;;;;;;;5.13;91.04;100145.28;5039757;28;20240;-83
2022/09/30 04:49:04;;;;;;;8.07;7.27;;;;;;;5.13;91.29;100149.72;5039809;28;20229;-81
2022/09/30 04:51:30;;;;;;;8.57;7.77;;;;;;;5.12;91.07;100148.88;5038023;28;20208;-81
2022/09/30 04:53:57;;;;;;;8.40;7.43;;;;;;;5.11;91.22;100149.78;5042835;28;20212;-81
2022/09/30 04:56:25;;;;;;;7.80;7.03;;;;;;;5.11;91.39;100156.84;5041559;28;20602;-81
2022/09/30 04:58:53;;;;;;;7.67;6.80;;;;;;;5.09;91.39;100161.34;5046004;28;20557;-82
2022/09/30 05:01:20;;;;;;;9.93;7.80;;;;;;;5.09;91.32;100159.56;5038998;28;20276;-81
2022/09/30 05:03:47;;;;;;;8.20;7.40;;;;;;;5.07;91.46;100157.91;5044757;28;20210;-83
2022/09/30 05:06:14;;;;;;;10.87;9.77;;;;;;;5.05;91.48;100162.41;5045266;28;20256;-82
2022/09/30 05:08:42;;;;;;;13.27;10.00;;;;;;;5.04;91.35;100171.25;5046658;28;20281;-82
2022/09/30 05:11:13;;;;;;;13.83;9.90;;;;;;;5.02;90.92;100175.75;5048125;28;20206;-82
2022/09/30 05:13:40;;;;;;;10.73;9.60;;;;;;;5.01;91.31;100174.06;5046011;28;20205;-82
2022/09/30 05:16:10;;;;;;;12.13;10.93;;;;;;;4.99;91.29;100178.56;5050500;28;20602;-81
2022/09/30 05:18:38;;;;;;;12.57;11.27;;;;;;;4.97;91.42;100178.63;5046710;28;20236;-81
2022/09/30 05:21:05;;;;;;;10.43;9.43;;;;;;;4.96;91.29;100184.84;5049380;28;20229;-80
2022/09/30 05:23:32;;;;;;;12.10;10.30;;;;;;;4.95;91.06;100187.56;5051445;28;20201;-80
2022/09/30 05:26:00;;;;;;;10.80;9.80;;;;;;;4.94;91.05;100181.41;5048735;28;20274;-79
2022/09/30 05:28:30;;;;;;;13.03;10.73;;;;;;;4.93;91.20;100189.41;5062035;28;20217;-79
2022/09/30 05:30:58;;;;;;;14.00;11.13;;;;;;;4.91;91.28;100185.97;5061462;28;20213;-81
2022/09/30 05:33:28;;;;;;;19.03;12.53;;;;;;;4.90;91.59;100185.13;5047979;28;20205;-83
2022/09/30 05:35:55;;;;;;;21.93;13.90;;;;;;;4.91;91.62;100191.25;5059793;28;20243;-82
2022/09/30 05:38:22;;;;;;;15.73;12.37;;;;;;;4.92;91.45;100188.56;5054571;28;20245;-83
2022/09/30 05:40:48;;;;;;;21.07;13.53;;;;;;;4.96;91.91;100194.53;5056935;28;20998;-83
2022/09/30 05:43:15;;;;;;;24.20;14.90;;;;;;;4.98;92.12;100190.06;5052676;28;20202;-82
2022/09/30 05:45:42;;;;;;;24.70;14.50;;;;;;;5.01;92.18;100203.09;5053286;28;20218;-81
2022/09/30 05:48:08;;;;;;;16.40;12.47;;;;;;;5.03;92.38;100203.84;5060028;28;20201;-81
2022/09/30 05:50:36;;;;;;;18.83;11.83;;;;;;;5.07;92.59;100202.78;5058307;28;20206;-81
2022/09/30 05:53:02;;;;;;;15.03;10.77;;;;;;;5.10;92.40;100202.66;5061214;28;20216;-82
2022/09/30 05:55:30;;;;;;;16.80;10.77;;;;;;;5.14;93.15;100210.34;5057286;28;20647;-82
2022/09/30 05:57:56;;;;;;;11.93;10.30;;;;;;;5.17;92.95;100209.38;5063847;28;20209;-81
2022/09/30 06:00:23;;;;;;;12.27;10.90;;;;;;;5.20;93.42;100214.47;5054820;28;20212;-81
2022/09/30 06:02:51;;;;;;;13.43;10.97;;;;;;;5.23;93.38;100224.88;5063978;28;20216;-82
2022/09/30 06:05:18;;;;;;;14.90;10.97;;;;;;;5.27;94.10;100221.19;5053137;28;20702;-81
2022/09/30 06:07:46;;;;;;;14.13;11.30;;;;;;;5.30;93.90;100218.38;5055963;28;20243;-82
2022/09/30 06:10:12;;;;;;;15.67;11.30;;;;;;;5.33;93.86;100220.88;5053072;28;20640;-82
2022/09/30 06:12:39;;;;;;;13.77;10.70;;;;;;;5.36;93.86;100228.66;5056932;28;20209;-82
2022/09/30 06:15:07;;;;;;;15.83;10.90;;;;;;;5.38;93.76;100224.13;5050570;28;20236;-82
2022/09/30 06:17:34;;;;;;;13.63;11.27;;;;;;;5.40;94.04;100232.84;5054794;28;20593;-82
2022/09/30 06:20:04;;;;;;;12.23;10.93;;;;;;;5.43;94.01;100235.34;5059453;28;20237;-82
2022/09/30 06:22:34;;;;;;;11.93;10.73;;;;;;;5.46;94.16;100236.97;5063270;28;20594;-82
2022/09/30 06:25:03;;;;;;;9.97;8.97;;;;;;;5.47;94.09;100236.91;5051298;28;20279;-82
2022/09/30 06:27:29;;;;;;;11.63;10.33;;;;;;;5.50;94.35;100247.31;5063743;28;21692;-82
2022/09/30 06:29:56;;;;;;;12.83;10.00;;;;;;;5.53;94.23;100254.25;5052196;28;20660;-82
2022/09/30 06:32:24;;;;;;;13.40;10.50;;;;;;;5.55;94.40;100250.56;5051909;28;20198;-81
2022/09/30 06:34:54;;;;;;;12.33;10.60;;;;;;;5.57;94.32;100251.38;5062131;28;20236;-81
2022/09/30 06:37:20;;;;;;;13.20;10.23;;;;;;;5.62;94.39;100253.78;5052136;28;20217;-81
2022/09/30 06:39:47;;;;;;;13.07;10.27;;;;;;;5.65;94.43;100258.91;5061080;28;20208;-81
2022/09/30 06:42:15;;;;;;;12.97;10.93;;;;;;;5.69;94.49;100259.63;5060208;28;20221;-81
2022/09/30 06:44:42;;;;;;;16.33;10.30;;;;;;;5.75;95.04;100261.94;5058872;28;20224;-81
2022/09/30 06:47:08;;;;;;;14.80;11.00;;;;;;;5.82;95.71;100268.66;5060312;28;20205;-81
2022/09/30 06:49:35;;;;;;;15.27;11.27;;;;;;;5.90;95.61;100270.03;5053314;28;20252;-81
2022/09/30 06:52:01;;;;;;;11.20;10.00;;;;;;;5.99;96.03;100268.69;5056428;28;20644;-81
2022/09/30 06:54:28;;;;;;;13.30;10.27;;;;;;;6.08;96.03;100272.69;5051127;28;20209;-81
2022/09/30 06:56:56;;;;;;;11.70;10.40;;;;;;;6.17;97.02;100272.19;5053235;28;20222;-80
2022/09/30 06:59:24;;;;;;;12.97;11.50;;;;;;;6.26;96.63;100266.44;5058672;28;20230;-81
2022/09/30 07:01:50;;;;;;;12.60;11.30;;;;;;;6.36;96.96;100266.81;5059371;28;20291;-81
2022/09/30 07:04:17;;;;;;;12.20;10.77;;;;;;;6.45;96.94;100269.00;5056227;28;20205;-81
2022/09/30 07:06:43;;;;;;;12.67;11.37;;;;;;;6.52;96.93;100276.50;5054301;28;20208;-80
2022/09/30 07:09:12;;;;;;;12.23;11.03;;;;;;;6.60;97.02;100273.47;5052856;28;20210;-81
2022/09/30 07:11:39;;;;;;;14.23;10.83;;;;;;;6.69;97.41;100278.25;5050639;28;20564;-81
2022/09/30 07:14:05;;;;;;;13.33;11.50;;;;;;;6.79;97.39;100270.69;5041157;28;20210;-81
2022/09/30 07:16:34;;;;;;;12.33;11.10;;;;;;;6.88;96.83;100276.34;5052558;28;20217;-80
2022/09/30 07:19:00;;;;;;;13.30;11.27;;;;;;;6.97;97.32;100275.84;5052575;28;20261;-81
2022/09/30 07:21:29;;;;;;;17.03;12.03;;;;;;;7.05;97.80;100282.50;5051007;28;20229;-81
2022/09/30 07:23:55;;;;;;;15.67;12.50;;;;;;;7.11;97.64;100282.19;5054244;28;20214;-81
2022/09/30 07:26:23;;;;;;;14.80;10.80;;;;;;;7.20;97.78;100281.66;5054701;28;20248;-81
2022/09/30 07:28:51;;;;;;;15.93;12.33;;;;;;;7.30;98.09;100278.44;5049226;28;20583;-81
2022/09/30 07:31:19;;;;;;;15.57;11.93;;;;;;;7.43;98.23;100283.03;5046301;28;20216;-81
2022/09/30 07:33:50;;;;;;;17.93;11.90;;;;;;;7.61;99.19;100272.25;5052543;28;20204;-81
2022/09/30 07:36:18;;;;;;;14.77;13.17;;;;;;;7.78;100.00;100284.53;5050262;28;20229;-81
2022/09/30 07:38:48;;;;;;;13.07;11.67;;;;;;;7.95;100.00;100280.91;5054573;28;20216;-81
2022/09/30 07:41:17;;;;;;;12.17;10.97;;;;;;;8.12;100.00;100291.38;5055360;28;20253;-81
2022/09/30 07:43:47;;;;;;;12.33;11.03;;;;;;;8.32;100.00;100288.44;5044488;28;20450;-81
2022/09/30 07:46:16;;;;;;;13.90;10.93;;;;;;;8.52;100.00;100281.06;5045842;28;20232;-81
2022/09/30 07:48:46;;;;;;;13.30;10.83;;;;;;;8.72;99.94;100287.81;5053056;28;20206;-81
2022/09/30 07:51:16;;;;;;;11.93;10.73;;;;;;;8.91;99.42;100291.91;5041806;28;20664;-81
2022/09/30 07:53:44;;;;;;;10.93;9.83;;;;;;;9.09;98.96;100289.06;5052763;28;20197;-81
2022/09/30 07:56:11;;;;;;;12.67;10.27;;;;;;;9.26;99.18;100295.00;5054801;28;20710;-81
2022/09/30 07:58:39;;;;;;;11.50;10.40;;;;;;;9.44;98.19;100297.44;5049489;28;20239;-82
2022/09/30 08:01:06;;;;;;;11.57;10.27;;;;;;;9.58;96.68;100302.72;5044059;28;20240;-82
2022/09/30 08:03:33;;;;;;;11.23;10.13;;;;;;;9.73;96.55;100294.59;5055575;28;20209;-81
2022/09/30 08:06:04;;;;;;;11.40;9.20;;;;;;;9.93;95.89;100300.41;5052162;28;20264;-81
2022/09/30 08:08:32;;;;;;;9.87;8.90;;;;;;;10.10;95.45;100300.13;5052029;28;20237;-81
2022/09/30 08:10:59;;;;;;;11.47;10.33;;;;;;;10.29;94.85;100297.13;5043016;28;20197;-81
2022/09/30 08:13:26;;;;;;;9.83;8.90;;;;;;;10.48;93.47;100296.72;5052572;28;20672;-81
2022/09/30 08:15:52;;;;;;;11.03;9.70;;;;;;;10.63;92.02;100298.31;5051655;28;20230;-81
2022/09/30 08:18:18;;;;;;;12.70;9.63;;;;;;;10.80;90.71;100298.00;5053432;28;20198;-80
2022/09/30 08:20:45;;;;;;;10.63;9.63;;;;;;;10.96;89.18;100297.78;5050687;28;20218;-81
2022/09/30 08:23:12;;;;;;;9.60;8.63;;;;;;;11.13;88.27;100298.28;5045806;28;20222;-81
2022/09/30 08:25:39;;;;;;;9.77;8.77;;;;;;;11.30;87.00;100302.41;5049675;28;20224;-82
2022/09/30 08:28:06;;;;;;;10.07;8.83;;;;;;;11.43;85.50;100303.25;5050637;28;20197;-81
2022/09/30 08:30:34;;;;;;;12.10;8.53;;;;;;;11.57;84.87;100304.91;5046543;28;20211;-81
2022/09/30 08:33:01;;;;;;;9.93;8.80;;;;;;;11.73;84.10;100304.66;5055104;28;20209;-81
2022/09/30 08:35:27;;;;;;;8.70;7.83;;;;;;;11.89;83.72;100299.91;5041611;28;20226;-82
2022/09/30 08:37:54;;;;;;;8.93;8.03;;;;;;;12.08;83.20;100308.25;5052618;28;20206;-82
2022/09/30 08:40:24;;;;;;;8.80;7.60;;;;;;;12.27;82.34;100307.72;5053465;28;20628;-81
2022/09/30 08:43:09;;;;;;;6.90;6.07;;;;;;;12.50;80.84;100300.63;5047460;28;20703;-82
2022/09/30 08:45:43;;;;;;;6.30;5.70;;;;;;;12.60;77.89;100295.41;5056145;28;20602;-82
2022/09/30 08:48:22;;;;;;;6.57;5.97;;;;;;;12.72;76.90;100308.66;5055625;28;20205;-82
2022/09/30 08:50:59;;;;;;;7.67;6.00;;;;;;;12.84;74.47;100306.88;5048909;28;20199;-82
2022/09/30 08:53:30;;;;;;;7.37;6.33;;;;;;;12.98;73.72;100306.63;5058053;28;20212;-82
2022/09/30 08:56:01;;;;;;;6.23;5.70;;;;;;;13.11;71.43;100306.50;5058560;28;20224;-82
2022/09/30 08:58:32;;;;;;;6.47;5.83;;;;;;;13.26;70.41;100312.50;5060127;28;20919;-82
2022/09/30 09:01:05;;;;;;;7.27;5.70;;;;;;;13.41;69.20;100319.31;5051101;28;20228;-82
2022/09/30 09:03:33;;;;;;;6.90;5.93;;;;;;;13.54;68.09;100320.03;5056385;28;20217;-82
2022/09/30 09:06:11;;;;;;;6.03;5.53;;;;;;;13.68;67.32;100322.41;5052846;28;20225;-82
2022/09/30 09:08:58;;;;;;;11.77;5.83;;;;;;;13.82;66.34;100321.28;5054687;28;20194;-83
2022/09/30 09:11:41;;;;;;;6.23;5.67;;;;;;;13.94;65.46;100322.13;5047869;28;20205;-83
2022/09/30 09:14:21;;;;;;;5.83;5.23;;;;;;;14.05;65.01;100322.06;5046629;28;20204;-83
2022/09/30 09:16:53;;;;;;;8.07;5.67;;;;;;;14.13;64.14;100322.31;5055750;28;20204;-82
2022/09/30 09:19:24;;;;;;;6.60;5.57;;;;;;;14.23;63.81;100323.22;5054915;28;20687;-82
2022/09/30 09:21:55;;;;;;;6.70;5.83;;;;;;;14.34;63.55;100327.66;5039384;28;20230;-82
2022/09/30 09:24:24;;;;;;;6.63;5.93;;;;;;;14.44;63.05;100324.13;5050683;28;20194;-83
2022/09/30 09:26:53;;;;;;;7.67;6.03;;;;;;;14.54;62.30;100326.88;5055621;28;20799;-82
2022/09/30 09:29:35;;;;;;;6.40;5.80;;;;;;;14.63;61.42;100320.75;5044500;28;20199;-82
2022/09/30 09:32:02;;;;;;;8.27;6.27;;;;;;;14.69;59.95;100319.38;5053576;28;20193;-83
2022/09/30 09:34:30;;;;;;;7.40;6.27;;;;;;;14.72;59.85;100314.56;5053788;28;20202;-83
2022/09/30 09:37:12;;;;;;;7.70;6.50;;;;;;;14.77;59.53;100328.44;5054440;28;20214;-82
2022/09/30 09:39:57;;;;;;;6.87;6.27;;;;;;;14.83;59.79;100327.06;5052472;28;20199;-81
2022/09/30 09:42:51;;;;;;;7.13;6.37;;;;;;;14.93;59.94;100326.13;5049676;28;21002;-82
2022/09/30 09:45:27;;;;;;;8.03;6.03;;;;;;;15.07;59.85;100324.94;5054342;28;20222;-82
2022/09/30 09:47:56;;;;;;;7.63;6.93;;;;;;;15.18;59.49;100319.50;5051713;28;20757;-82
2022/09/30 09:50:33;;;;;;;7.07;6.47;;;;;;;15.25;58.54;100315.28;5047435;28;20264;-83
2022/09/30 09:53:20;;;;;;;8.03;7.20;;;;;;;15.34;58.83;100318.16;5057624;28;20201;-83
2022/09/30 09:55:49;;;;;;;8.90;6.70;;;;;;;15.40;58.39;100325.66;5044672;28;20290;-83
2022/09/30 09:58:16;;;;;;;7.17;6.47;;;;;;;15.48;58.19;100320.44;5052909;28;20221;-82
2022/09/30 10:03:28;;;;;;;5.60;5.03;;;;;;;15.56;56.84;100316.13;5057524;28;20234;-83
2022/09/30 10:06:04;;;;;;;7.00;5.87;;;;;;;15.59;56.29;100313.16;5047864;28;20238;-83
2022/09/30 10:08:32;;;;;;;5.40;4.90;;;;;;;15.65;56.10;100319.81;5061565;28;20730;-83
2022/09/30 10:11:02;;;;;;;6.93;6.33;;;;;;;15.69;55.88;100323.94;5058715;28;20215;-83
2022/09/30 10:13:31;;;;;;;5.83;5.23;;;;;;;15.73;54.87;100320.00;5055537;28;20227;-82
2022/09/30 10:16:01;;;;;;;9.47;6.33;;;;;;;15.73;54.53;100308.41;5061751;28;20247;-83
2022/09/30 10:18:29;;;;;;;6.60;6.00;;;;;;;15.70;55.07;100304.16;5056440;28;20210;-83
2022/09/30 10:20:58;;;;;;;7.77;5.37;;;;;;;15.70;55.41;100304.16;5063429;28;20218;-83
2022/09/30 10:23:30;;;;;;;6.60;5.37;;;;;;;15.76;55.43;100306.31;5056362;28;20226;-81
2022/09/30 10:26:00;;;;;;;5.47;4.97;;;;;;;15.80;54.97;100310.38;5057618;28;20234;-82
2022/09/30 10:28:29;;;;;;;5.83;5.23;;;;;;;15.83;54.30;100309.25;5053258;28;20237;-83
2022/09/30 10:31:02;;;;;;;8.27;6.27;;;;;;;15.89;54.66;100306.88;5054896;28;20572;-82
2022/09/30 10:33:33;;;;;;;6.20;5.60;;;;;;;15.98;54.24;100307.84;5061870;28;20220;-82
2022/09/30 10:36:10;;;;;;;5.67;5.17;;;;;;;16.03;53.68;100300.25;5060836;28;20782;-82
2022/09/30 10:38:45;;;;;;;5.53;4.97;;;;;;;16.08;52.83;100297.13;5062333;28;20207;-82
2022/09/30 10:41:11;;;;;;;7.83;6.00;;;;;;;16.13;53.05;100297.53;5058637;28;20669;-82
2022/09/30 10:43:43;;;;;;;7.97;6.60;;;;;;;16.21;53.46;100295.00;5067199;28;20217;-82
2022/09/30 10:46:12;;;;;;;7.30;6.60;;;;;;;16.28;52.81;100297.00;5058898;28;20250;-83
2022/09/30 10:48:41;;;;;;;8.13;6.20;;;;;;;16.35;52.51;100299.09;5064184;28;20239;-82
2022/09/30 10:51:23;;;;;;;6.27;5.50;;;;;;;16.41;52.22;100293.16;5060696;28;20208;-83
2022/09/30 10:53:49;;;;;;;6.20;5.60;;;;;;;16.43;51.90;100300.09;5059329;28;20217;-82
2022/09/30 10:56:33;;;;;;;8.27;6.17;;;;;;;16.47;52.17;100303.34;5064651;28;20227;-81
2022/09/30 10:59:02;;;;;;;6.70;6.10;;;;;;;16.47;51.47;100300.66;5057569;28;20217;-82
2022/09/30 11:01:33;;;;;;;6.73;6.03;;;;;;;16.53;51.19;100294.69;5057933;28;20779;-82
2022/09/30 11:04:05;;;;;;;7.27;6.57;;;;;;;16.52;51.21;100298.38;5049995;28;20688;-81
2022/09/30 11:06:37;;;;;;;7.47;6.77;;;;;;;16.56;50.98;100303.31;5048024;28;20245;-82
2022/09/30 11:09:06;;;;;;;7.57;6.77;;;;;;;16.56;51.10;100305.16;5045390;28;20210;-82
2022/09/30 11:11:37;;;;;;;7.27;6.57;;;;;;;16.60;51.08;100302.06;5045268;28;20200;-82
2022/09/30 11:14:15;;;;;;;9.70;7.90;;;;;;;16.63;50.15;100309.88;5041199;28;20208;-81
2022/09/30 11:16:51;;;;;;;8.70;7.90;;;;;;;16.61;49.88;100306.44;5040345;28;20710;-81
2022/09/30 11:19:23;;;;;;;8.33;7.40;;;;;;;16.61;49.67;100316.34;5042506;28;20231;-81
2022/09/30 11:21:56;;;;;;;7.77;6.97;;;;;;;16.60;49.97;100317.34;5047828;28;20214;-82
2022/09/30 11:24:29;;;;;;;7.47;6.77;;;;;;;16.60;50.34;100315.50;5050517;28;20245;-81
2022/09/30 11:27:06;;;;;;;8.17;7.00;;;;;;;16.61;50.63;100319.03;5050298;28;20211;-81
2022/09/30 11:30:00;;;;;;;7.83;7.00;;;;;;;16.68;51.14;100312.09;5052617;28;20208;-81
2022/09/30 11:32:40;;;;;;;7.07;6.47;;;;;;;16.79;51.37;100316.47;5047048;28;20210;-81
2022/09/30 11:35:28;;;;;;;8.67;7.87;;;;;;;16.85;51.18;100310.50;5042400;28;20225;-82
2022/09/30 11:38:06;;;;;;;8.60;7.80;;;;;;;16.90;50.53;100308.22;5051027;28;20207;-82
2022/09/30 11:40:38;;;;;;;9.47;8.47;;;;;;;16.87;50.30;100312.06;5052961;28;20196;-82
2022/09/30 11:43:16;;;;;;;9.73;8.53;;;;;;;16.84;50.08;100314.22;5053194;28;20220;-81
2022/09/30 11:46:06;;;;;;;8.53;7.67;;;;;;;16.78;50.77;100306.72;5053573;28;20225;-82
2022/09/30 11:48:48;;;;;;;7.17;6.40;;;;;;;16.76;50.13;100306.00;5053692;28;20211;-81